New Lancaster, Indiana
Current Conditions -  °F | °C
As of 8:15 AM on Wednesday 22 Oct 2014 (Local Time) from KMZZ Reporting Station
Broken Clouds Broken Clouds  
Wind Chill: 37°   Ceiling: 2500
Heat Index: 37°   Visibility: 7mi
Dew Point: 34°   Wind: 0mph
Humidity: 89%   Direction: NA
Pressure: 30.31"   Gusts: NA
Location:  40.3067°N, 85.834°W
Report Text: KMZZ 221215Z AUTO 00000KT 7SM BKN025 03/01 A3031 RMK AO2 T00250009
Loading
Personal Weather Stations






























Interactive Weather Map
Tropical Storm Tracking
New forecast layout! Learn more

10-Day Weather Forecast

Advertisements
Track Severe Weather on mobile